sensor_id;sensor_type;location;lat;lon;timestamp;P1;durP1;ratioP1;P2;durP2;ratioP2
17625;SDS011;8931;50.042;19.930;2022-07-26T00:00:57;21.50;;;19.67;;
17625;SDS011;8931;50.042;19.930;2022-07-26T00:01:59;21.57;;;19.63;;
17625;SDS011;8931;50.042;19.930;2022-07-26T00:03:02;21.87;;;19.77;;
17625;SDS011;8931;50.042;19.930;2022-07-26T00:04:05;25.73;;;19.93;;
17625;SDS011;8931;50.042;19.930;2022-07-26T00:05:07;22.47;;;20.27;;
17625;SDS011;8931;50.042;19.930;2022-07-26T00:06:09;22.30;;;20.20;;
17625;SDS011;8931;50.042;19.930;2022-07-26T00:07:10;22.07;;;19.87;;
17625;SDS011;8931;50.042;19.930;2022-07-26T00:08:12;24.97;;;20.33;;
17625;SDS011;8931;50.042;19.930;2022-07-26T00:09:13;21.93;;;19.93;;
17625;SDS011;8931;50.042;19.930;2022-07-26T00:10:16;24.20;;;20.13;;
17625;SDS011;8931;50.042;19.930;2022-07-26T00:11:17;21.20;;;19.13;;
17625;SDS011;8931;50.042;19.930;2022-07-26T00:12:19;22.10;;;19.83;;
17625;SDS011;8931;50.042;19.930;2022-07-26T00:13:21;23.90;;;20.70;;
17625;SDS011;8931;50.042;19.930;2022-07-26T00:14:21;21.60;;;19.67;;
17625;SDS011;8931;50.042;19.930;2022-07-26T00:15:24;21.43;;;19.33;;
17625;SDS011;8931;50.042;19.930;2022-07-26T00:16:26;21.53;;;19.60;;
17625;SDS011;8931;50.042;19.930;2022-07-26T00:17:28;21.90;;;19.90;;
17625;SDS011;8931;50.042;19.930;2022-07-26T00:18:29;22.60;;;20.47;;
17625;SDS011;8931;50.042;19.930;2022-07-26T00:19:32;23.93;;;20.03;;
17625;SDS011;8931;50.042;19.930;2022-07-26T00:20:32;24.83;;;20.37;;
17625;SDS011;8931;50.042;19.930;2022-07-26T00:21:34;22.00;;;19.83;;
17625;SDS011;8931;50.042;19.930;2022-07-26T00:22:36;21.07;;;19.27;;
17625;SDS011;8931;50.042;19.930;2022-07-26T00:23:41;22.10;;;19.87;;
17625;SDS011;8931;50.042;19.930;2022-07-26T00:24:42;21.43;;;19.37;;
17625;SDS011;8931;50.042;19.930;2022-07-26T00:25:43;21.40;;;19.50;;
17625;SDS011;8931;50.042;19.930;2022-07-26T00:26:44;22.33;;;19.90;;
17625;SDS011;8931;50.042;19.930;2022-07-26T00:27:46;22.13;;;20.10;;
17625;SDS011;8931;50.042;19.930;2022-07-26T00:28:47;22.73;;;19.40;;
17625;SDS011;8931;50.042;19.930;2022-07-26T00:29:49;21.30;;;19.37;;
17625;SDS011;8931;50.042;19.930;2022-07-26T00:30:52;21.53;;;19.53;;
17625;SDS011;8931;50.042;19.930;2022-07-26T00:31:54;21.33;;;19.43;;
17625;SDS011;8931;50.042;19.930;2022-07-26T00:32:55;21.27;;;19.53;;
17625;SDS011;8931;50.042;19.930;2022-07-26T00:33:57;20.90;;;19.13;;
17625;SDS011;8931;50.042;19.930;2022-07-26T00:34:59;21.13;;;19.43;;
17625;SDS011;8931;50.042;19.930;2022-07-26T00:36:01;20.70;;;18.83;;
17625;SDS011;8931;50.042;19.930;2022-07-26T00:37:02;20.53;;;18.80;;
17625;SDS011;8931;50.042;19.930;2022-07-26T00:38:04;20.70;;;18.70;;
17625;SDS011;8931;50.042;19.930;2022-07-26T00:39:05;20.57;;;18.87;;
17625;SDS011;8931;50.042;19.930;2022-07-26T00:40:07;21.43;;;19.53;;
17625;SDS011;8931;50.042;19.930;2022-07-26T00:41:08;21.63;;;19.53;;
17625;SDS011;8931;50.042;19.930;2022-07-26T00:42:10;21.87;;;19.67;;
17625;SDS011;8931;50.042;19.930;2022-07-26T00:43:14;20.77;;;18.83;;
17625;SDS011;8931;50.042;19.930;2022-07-26T00:44:18;21.53;;;19.63;;
17625;SDS011;8931;50.042;19.930;2022-07-26T00:45:20;20.77;;;18.77;;
17625;SDS011;8931;50.042;19.930;2022-07-26T00:46:21;21.70;;;19.50;;
17625;SDS011;8931;50.042;19.930;2022-07-26T00:47:22;20.50;;;18.80;;
17625;SDS011;8931;50.042;19.930;2022-07-26T00:48:24;21.33;;;19.23;;
17625;SDS011;8931;50.042;19.930;2022-07-26T00:49:25;20.57;;;18.83;;
17625;SDS011;8931;50.042;19.930;2022-07-26T00:50:29;21.60;;;19.60;;
17625;SDS011;8931;50.042;19.930;2022-07-26T00:51:29;21.00;;;19.10;;
17625;SDS011;8931;50.042;19.930;2022-07-26T00:52:31;20.97;;;19.23;;
17625;SDS011;8931;50.042;19.930;2022-07-26T00:53:32;21.80;;;20.07;;
17625;SDS011;8931;50.042;19.930;2022-07-26T00:54:33;21.73;;;19.77;;
17625;SDS011;8931;50.042;19.930;2022-07-26T00:55:35;21.17;;;19.37;;
17625;SDS011;8931;50.042;19.930;2022-07-26T00:56:37;21.30;;;19.60;;
17625;SDS011;8931;50.042;19.930;2022-07-26T00:57:39;21.77;;;19.80;;
17625;SDS011;8931;50.042;19.930;2022-07-26T00:58:41;22.07;;;20.07;;
17625;SDS011;8931;50.042;19.930;2022-07-26T00:59:42;21.43;;;19.53;;
17625;SDS011;8931;50.042;19.930;2022-07-26T01:00:43;21.23;;;19.37;;
17625;SDS011;8931;50.042;19.930;2022-07-26T01:01:44;20.93;;;19.23;;
17625;SDS011;8931;50.042;19.930;2022-07-26T01:02:46;20.80;;;18.90;;
17625;SDS011;8931;50.042;19.930;2022-07-26T01:03:50;21.50;;;19.50;;
17625;SDS011;8931;50.042;19.930;2022-07-26T01:04:53;20.97;;;19.10;;
17625;SDS011;8931;50.042;19.930;2022-07-26T01:05:55;22.13;;;20.13;;
17625;SDS011;8931;50.042;19.930;2022-07-26T01:06:57;21.47;;;19.53;;
17625;SDS011;8931;50.042;19.930;2022-07-26T01:07:58;24.03;;;19.90;;
17625;SDS011;8931;50.042;19.930;2022-07-26T01:08:59;22.07;;;20.00;;
17625;SDS011;8931;50.042;19.930;2022-07-26T01:10:00;21.77;;;19.90;;
17625;SDS011;8931;50.042;19.930;2022-07-26T01:11:02;21.43;;;19.27;;
17625;SDS011;8931;50.042;19.930;2022-07-26T01:12:03;20.90;;;19.10;;
17625;SDS011;8931;50.042;19.930;2022-07-26T01:13:05;21.60;;;19.60;;
17625;SDS011;8931;50.042;19.930;2022-07-26T01:14:06;21.43;;;19.50;;
17625;SDS011;8931;50.042;19.930;2022-07-26T01:15:08;24.60;;;19.37;;
17625;SDS011;8931;50.042;19.930;2022-07-26T01:16:10;21.63;;;19.70;;
17625;SDS011;8931;50.042;19.930;2022-07-26T01:17:12;21.13;;;19.13;;
17625;SDS011;8931;50.042;19.930;2022-07-26T01:18:14;20.83;;;18.63;;
17625;SDS011;8931;50.042;19.930;2022-07-26T01:19:17;21.00;;;19.10;;
17625;SDS011;8931;50.042;19.930;2022-07-26T01:20:18;20.90;;;19.20;;
17625;SDS011;8931;50.042;19.930;2022-07-26T01:21:21;21.03;;;19.03;;
17625;SDS011;8931;50.042;19.930;2022-07-26T01:22:23;20.67;;;18.87;;
17625;SDS011;8931;50.042;19.930;2022-07-26T01:23:25;21.30;;;19.30;;
17625;SDS011;8931;50.042;19.930;2022-07-26T01:24:26;21.30;;;19.40;;
17625;SDS011;8931;50.042;19.930;2022-07-26T01:25:29;20.67;;;18.57;;
17625;SDS011;8931;50.042;19.930;2022-07-26T01:26:31;21.57;;;19.30;;
17625;SDS011;8931;50.042;19.930;2022-07-26T01:27:33;20.33;;;18.40;;
17625;SDS011;8931;50.042;19.930;2022-07-26T01:28:38;20.97;;;18.90;;
17625;SDS011;8931;50.042;19.930;2022-07-26T01:29:40;19.47;;;17.87;;
17625;SDS011;8931;50.042;19.930;2022-07-26T01:30:41;20.73;;;18.57;;
17625;SDS011;8931;50.042;19.930;2022-07-26T01:31:42;20.40;;;18.53;;
17625;SDS011;8931;50.042;19.930;2022-07-26T01:32:46;20.47;;;18.57;;
17625;SDS011;8931;50.042;19.930;2022-07-26T01:33:47;20.33;;;18.47;;
17625;SDS011;8931;50.042;19.930;2022-07-26T01:34:49;20.47;;;18.57;;
17625;SDS011;8931;50.042;19.930;2022-07-26T01:35:49;20.03;;;18.17;;
17625;SDS011;8931;50.042;19.930;2022-07-26T01:36:51;20.40;;;18.43;;
17625;SDS011;8931;50.042;19.930;2022-07-26T01:37:55;19.50;;;17.90;;
17625;SDS011;8931;50.042;19.930;2022-07-26T01:38:58;20.20;;;18.47;;
17625;SDS011;8931;50.042;19.930;2022-07-26T01:40:00;21.30;;;19.30;;
17625;SDS011;8931;50.042;19.930;2022-07-26T01:41:02;20.27;;;18.37;;
17625;SDS011;8931;50.042;19.930;2022-07-26T01:42:03;20.47;;;18.63;;
17625;SDS011;8931;50.042;19.930;2022-07-26T01:43:05;20.17;;;18.37;;
17625;SDS011;8931;50.042;19.930;2022-07-26T01:44:05;20.13;;;18.00;;
17625;SDS011;8931;50.042;19.930;2022-07-26T01:45:08;20.47;;;18.50;;
17625;SDS011;8931;50.042;19.930;2022-07-26T01:46:11;19.90;;;18.00;;
17625;SDS011;8931;50.042;19.930;2022-07-26T01:47:14;19.33;;;17.63;;
17625;SDS011;8931;50.042;19.930;2022-07-26T01:48:14;20.50;;;18.70;;
17625;SDS011;8931;50.042;19.930;2022-07-26T01:49:16;19.83;;;17.93;;
17625;SDS011;8931;50.042;19.930;2022-07-26T01:50:17;20.47;;;18.47;;
17625;SDS011;8931;50.042;19.930;2022-07-26T01:51:18;20.03;;;18.00;;
17625;SDS011;8931;50.042;19.930;2022-07-26T01:52:21;20.57;;;18.67;;
17625;SDS011;8931;50.042;19.930;2022-07-26T01:53:25;19.83;;;18.10;;
17625;SDS011;8931;50.042;19.930;2022-07-26T01:54:26;20.33;;;18.50;;
17625;SDS011;8931;50.042;19.930;2022-07-26T01:55:27;21.63;;;18.53;;
17625;SDS011;8931;50.042;19.930;2022-07-26T01:56:28;20.57;;;18.67;;
17625;SDS011;8931;50.042;19.930;2022-07-26T01:57:30;19.87;;;18.17;;
17625;SDS011;8931;50.042;19.930;2022-07-26T01:58:31;20.60;;;18.57;;
17625;SDS011;8931;50.042;19.930;2022-07-26T01:59:35;19.77;;;17.97;;
17625;SDS011;8931;50.042;19.930;2022-07-26T02:00:36;20.33;;;18.70;;
17625;SDS011;8931;50.042;19.930;2022-07-26T02:01:39;19.60;;;17.67;;
17625;SDS011;8931;50.042;19.930;2022-07-26T02:02:39;21.10;;;19.30;;
17625;SDS011;8931;50.042;19.930;2022-07-26T02:03:41;31.63;;;18.97;;
17625;SDS011;8931;50.042;19.930;2022-07-26T02:04:41;19.90;;;18.20;;
17625;SDS011;8931;50.042;19.930;2022-07-26T02:05:58;20.07;;;17.90;;
17625;SDS011;8931;50.042;19.930;2022-07-26T02:07:00;19.27;;;17.47;;
17625;SDS011;8931;50.042;19.930;2022-07-26T02:08:02;19.37;;;17.57;;
17625;SDS011;8931;50.042;19.930;2022-07-26T02:09:06;20.40;;;18.60;;
17625;SDS011;8931;50.042;19.930;2022-07-26T02:10:07;20.87;;;18.83;;
17625;SDS011;8931;50.042;19.930;2022-07-26T02:11:09;20.90;;;18.40;;
17625;SDS011;8931;50.042;19.930;2022-07-26T02:12:10;20.40;;;18.40;;
17625;SDS011;8931;50.042;19.930;2022-07-26T02:13:12;20.53;;;18.53;;
17625;SDS011;8931;50.042;19.930;2022-07-26T02:14:13;20.60;;;18.73;;
17625;SDS011;8931;50.042;19.930;2022-07-26T02:15:14;19.60;;;18.00;;
17625;SDS011;8931;50.042;19.930;2022-07-26T02:16:15;20.13;;;18.33;;
17625;SDS011;8931;50.042;19.930;2022-07-26T02:17:17;20.40;;;18.20;;
17625;SDS011;8931;50.042;19.930;2022-07-26T02:18:18;18.90;;;17.20;;
17625;SDS011;8931;50.042;19.930;2022-07-26T02:19:19;19.03;;;17.33;;
17625;SDS011;8931;50.042;19.930;2022-07-26T02:20:20;19.27;;;17.33;;
17625;SDS011;8931;50.042;19.930;2022-07-26T02:21:24;19.77;;;18.03;;
17625;SDS011;8931;50.042;19.930;2022-07-26T02:22:25;20.40;;;18.37;;
17625;SDS011;8931;50.042;19.930;2022-07-26T02:23:27;23.97;;;18.30;;
17625;SDS011;8931;50.042;19.930;2022-07-26T02:24:29;20.47;;;18.33;;
17625;SDS011;8931;50.042;19.930;2022-07-26T02:25:31;19.67;;;17.63;;
17625;SDS011;8931;50.042;19.930;2022-07-26T02:26:32;19.23;;;17.23;;
17625;SDS011;8931;50.042;19.930;2022-07-26T02:27:34;19.07;;;17.50;;
17625;SDS011;8931;50.042;19.930;2022-07-26T02:28:36;19.40;;;17.70;;
17625;SDS011;8931;50.042;19.930;2022-07-26T02:29:39;18.73;;;17.00;;
17625;SDS011;8931;50.042;19.930;2022-07-26T02:30:40;19.43;;;17.47;;
17625;SDS011;8931;50.042;19.930;2022-07-26T02:31:42;20.23;;;18.13;;
17625;SDS011;8931;50.042;19.930;2022-07-26T02:32:42;19.87;;;18.03;;
17625;SDS011;8931;50.042;19.930;2022-07-26T02:33:45;18.03;;;16.53;;
17625;SDS011;8931;50.042;19.930;2022-07-26T02:34:46;18.43;;;17.03;;
17625;SDS011;8931;50.042;19.930;2022-07-26T02:35:48;18.27;;;16.57;;
17625;SDS011;8931;50.042;19.930;2022-07-26T02:36:52;18.50;;;16.70;;
17625;SDS011;8931;50.042;19.930;2022-07-26T02:37:54;18.97;;;17.30;;
17625;SDS011;8931;50.042;19.930;2022-07-26T02:38:54;18.27;;;16.60;;
17625;SDS011;8931;50.042;19.930;2022-07-26T02:39:57;18.30;;;16.63;;
17625;SDS011;8931;50.042;19.930;2022-07-26T02:40:58;18.60;;;16.80;;
17625;SDS011;8931;50.042;19.930;2022-07-26T02:42:02;17.70;;;16.30;;
17625;SDS011;8931;50.042;19.930;2022-07-26T02:43:03;19.03;;;17.40;;
17625;SDS011;8931;50.042;19.930;2022-07-26T02:44:06;19.07;;;17.27;;
17625;SDS011;8931;50.042;19.930;2022-07-26T02:45:07;19.27;;;17.30;;
17625;SDS011;8931;50.042;19.930;2022-07-26T02:46:09;17.50;;;16.20;;
17625;SDS011;8931;50.042;19.930;2022-07-26T02:47:10;17.73;;;16.07;;
17625;SDS011;8931;50.042;19.930;2022-07-26T02:48:12;17.53;;;16.00;;
17625;SDS011;8931;50.042;19.930;2022-07-26T02:49:16;17.33;;;16.03;;
17625;SDS011;8931;50.042;19.930;2022-07-26T02:50:18;19.27;;;17.20;;
17625;SDS011;8931;50.042;19.930;2022-07-26T02:51:19;18.53;;;16.70;;
17625;SDS011;8931;50.042;19.930;2022-07-26T02:52:21;19.13;;;17.20;;
17625;SDS011;8931;50.042;19.930;2022-07-26T02:53:21;19.03;;;17.10;;
17625;SDS011;8931;50.042;19.930;2022-07-26T02:54:23;18.57;;;16.63;;
17625;SDS011;8931;50.042;19.930;2022-07-26T02:55:25;18.37;;;16.80;;
17625;SDS011;8931;50.042;19.930;2022-07-26T02:56:29;18.63;;;17.03;;
17625;SDS011;8931;50.042;19.930;2022-07-26T02:57:29;19.10;;;17.27;;
17625;SDS011;8931;50.042;19.930;2022-07-26T02:58:31;18.77;;;17.07;;
17625;SDS011;8931;50.042;19.930;2022-07-26T02:59:32;17.97;;;16.47;;
17625;SDS011;8931;50.042;19.930;2022-07-26T03:00:33;17.90;;;16.40;;
17625;SDS011;8931;50.042;19.930;2022-07-26T03:01:35;17.00;;;15.50;;
17625;SDS011;8931;50.042;19.930;2022-07-26T03:02:44;16.53;;;15.17;;
17625;SDS011;8931;50.042;19.930;2022-07-26T03:03:51;17.53;;;15.93;;
17625;SDS011;8931;50.042;19.930;2022-07-26T03:04:53;18.63;;;16.77;;
17625;SDS011;8931;50.042;19.930;2022-07-26T03:05:53;17.03;;;15.53;;
17625;SDS011;8931;50.042;19.930;2022-07-26T03:06:55;18.80;;;16.80;;
17625;SDS011;8931;50.042;19.930;2022-07-26T03:07:56;16.83;;;15.53;;
17625;SDS011;8931;50.042;19.930;2022-07-26T03:08:58;17.63;;;15.93;;
17625;SDS011;8931;50.042;19.930;2022-07-26T03:10:01;17.73;;;15.97;;
17625;SDS011;8931;50.042;19.930;2022-07-26T03:11:04;18.37;;;16.37;;
17625;SDS011;8931;50.042;19.930;2022-07-26T03:12:07;17.80;;;16.30;;
17625;SDS011;8931;50.042;19.930;2022-07-26T03:13:07;17.17;;;15.57;;
17625;SDS011;8931;50.042;19.930;2022-07-26T03:14:09;17.57;;;15.90;;
17625;SDS011;8931;50.042;19.930;2022-07-26T03:15:10;17.07;;;15.50;;
17625;SDS011;8931;50.042;19.930;2022-07-26T03:16:12;16.53;;;15.10;;
17625;SDS011;8931;50.042;19.930;2022-07-26T03:17:13;16.40;;;15.20;;
17625;SDS011;8931;50.042;19.930;2022-07-26T03:18:15;17.40;;;15.70;;
17625;SDS011;8931;50.042;19.930;2022-07-26T03:19:15;16.60;;;15.33;;
17625;SDS011;8931;50.042;19.930;2022-07-26T03:20:17;19.23;;;17.30;;
17625;SDS011;8931;50.042;19.930;2022-07-26T03:21:18;17.80;;;16.30;;
17625;SDS011;8931;50.042;19.930;2022-07-26T03:22:20;17.60;;;16.07;;
17625;SDS011;8931;50.042;19.930;2022-07-26T03:23:21;18.03;;;16.63;;
17625;SDS011;8931;50.042;19.930;2022-07-26T03:24:23;17.77;;;16.07;;
17625;SDS011;8931;50.042;19.930;2022-07-26T03:25:24;18.30;;;16.20;;
17625;SDS011;8931;50.042;19.930;2022-07-26T03:26:27;17.20;;;15.70;;
17625;SDS011;8931;50.042;19.930;2022-07-26T03:27:28;17.87;;;16.17;;
17625;SDS011;8931;50.042;19.930;2022-07-26T03:28:30;18.17;;;16.50;;
17625;SDS011;8931;50.042;19.930;2022-07-26T03:29:33;18.37;;;16.83;;
17625;SDS011;8931;50.042;19.930;2022-07-26T03:30:37;17.53;;;16.17;;
17625;SDS011;8931;50.042;19.930;2022-07-26T03:31:37;17.93;;;16.53;;
17625;SDS011;8931;50.042;19.930;2022-07-26T03:32:39;18.00;;;16.40;;
17625;SDS011;8931;50.042;19.930;2022-07-26T03:33:40;18.27;;;16.70;;
17625;SDS011;8931;50.042;19.930;2022-07-26T03:34:41;18.23;;;16.33;;
17625;SDS011;8931;50.042;19.930;2022-07-26T03:35:42;17.47;;;16.07;;
17625;SDS011;8931;50.042;19.930;2022-07-26T03:36:45;18.20;;;16.40;;
17625;SDS011;8931;50.042;19.930;2022-07-26T03:37:50;17.80;;;16.20;;
17625;SDS011;8931;50.042;19.930;2022-07-26T03:38:50;18.27;;;16.63;;
17625;SDS011;8931;50.042;19.930;2022-07-26T03:39:52;18.97;;;17.27;;
17625;SDS011;8931;50.042;19.930;2022-07-26T03:40:54;19.30;;;17.20;;
17625;SDS011;8931;50.042;19.930;2022-07-26T03:41:58;18.10;;;16.37;;
17625;SDS011;8931;50.042;19.930;2022-07-26T03:42:59;17.40;;;16.00;;
17625;SDS011;8931;50.042;19.930;2022-07-26T03:44:03;18.57;;;16.70;;
17625;SDS011;8931;50.042;19.930;2022-07-26T03:45:04;18.57;;;16.97;;
17625;SDS011;8931;50.042;19.930;2022-07-26T03:46:07;18.40;;;16.80;;
17625;SDS011;8931;50.042;19.930;2022-07-26T03:47:08;18.77;;;16.97;;
17625;SDS011;8931;50.042;19.930;2022-07-26T03:48:10;19.10;;;17.23;;
17625;SDS011;8931;50.042;19.930;2022-07-26T03:49:10;18.77;;;16.80;;
17625;SDS011;8931;50.042;19.930;2022-07-26T03:50:13;19.23;;;17.43;;
17625;SDS011;8931;50.042;19.930;2022-07-26T03:51:16;18.60;;;17.00;;
17625;SDS011;8931;50.042;19.930;2022-07-26T03:52:18;18.07;;;16.57;;
17625;SDS011;8931;50.042;19.930;2022-07-26T03:53:18;18.23;;;16.40;;
17625;SDS011;8931;50.042;19.930;2022-07-26T03:54:20;17.33;;;15.87;;
17625;SDS011;8931;50.042;19.930;2022-07-26T03:55:22;18.23;;;16.30;;
17625;SDS011;8931;50.042;19.930;2022-07-26T03:56:41;18.77;;;17.10;;
17625;SDS011;8931;50.042;19.930;2022-07-26T03:57:46;19.77;;;18.27;;
17625;SDS011;8931;50.042;19.930;2022-07-26T03:58:47;19.90;;;18.17;;
17625;SDS011;8931;50.042;19.930;2022-07-26T03:59:49;20.57;;;18.53;;
17625;SDS011;8931;50.042;19.930;2022-07-26T04:00:49;20.17;;;18.27;;
17625;SDS011;8931;50.042;19.930;2022-07-26T04:01:51;20.13;;;17.97;;
17625;SDS011;8931;50.042;19.930;2022-07-26T04:02:53;22.43;;;17.80;;
17625;SDS011;8931;50.042;19.930;2022-07-26T04:03:56;20.43;;;18.37;;
17625;SDS011;8931;50.042;19.930;2022-07-26T04:04:58;20.13;;;18.10;;
17625;SDS011;8931;50.042;19.930;2022-07-26T04:05:59;22.37;;;18.27;;
17625;SDS011;8931;50.042;19.930;2022-07-26T04:07:01;20.50;;;17.90;;
17625;SDS011;8931;50.042;19.930;2022-07-26T04:08:02;19.73;;;18.03;;
17625;SDS011;8931;50.042;19.930;2022-07-26T04:09:04;19.30;;;17.60;;
17625;SDS011;8931;50.042;19.930;2022-07-26T04:10:06;18.63;;;17.13;;
17625;SDS011;8931;50.042;19.930;2022-07-26T04:11:09;20.03;;;18.03;;
17625;SDS011;8931;50.042;19.930;2022-07-26T04:12:11;19.37;;;17.80;;
17625;SDS011;8931;50.042;19.930;2022-07-26T04:13:13;20.80;;;18.10;;
17625;SDS011;8931;50.042;19.930;2022-07-26T04:14:15;20.87;;;18.23;;
17625;SDS011;8931;50.042;19.930;2022-07-26T04:15:16;20.57;;;18.67;;
17625;SDS011;8931;50.042;19.930;2022-07-26T04:16:18;17.50;;;15.93;;
17625;SDS011;8931;50.042;19.930;2022-07-26T04:17:19;18.23;;;16.13;;
17625;SDS011;8931;50.042;19.930;2022-07-26T04:18:20;18.00;;;16.30;;
17625;SDS011;8931;50.042;19.930;2022-07-26T04:19:22;18.23;;;16.67;;
17625;SDS011;8931;50.042;19.930;2022-07-26T04:20:23;17.97;;;16.40;;
17625;SDS011;8931;50.042;19.930;2022-07-26T04:21:25;18.60;;;16.70;;
17625;SDS011;8931;50.042;19.930;2022-07-26T04:22:25;18.53;;;16.93;;
17625;SDS011;8931;50.042;19.930;2022-07-26T04:23:27;18.93;;;17.00;;
17625;SDS011;8931;50.042;19.930;2022-07-26T04:24:27;18.73;;;17.03;;
17625;SDS011;8931;50.042;19.930;2022-07-26T04:25:29;18.53;;;16.40;;
17625;SDS011;8931;50.042;19.930;2022-07-26T04:26:30;18.53;;;16.60;;
17625;SDS011;8931;50.042;19.930;2022-07-26T04:27:32;18.00;;;16.43;;
17625;SDS011;8931;50.042;19.930;2022-07-26T04:28:34;18.33;;;16.50;;
17625;SDS011;8931;50.042;19.930;2022-07-26T04:29:36;18.40;;;16.80;;
17625;SDS011;8931;50.042;19.930;2022-07-26T04:30:37;17.13;;;15.73;;
17625;SDS011;8931;50.042;19.930;2022-07-26T04:31:39;18.87;;;16.87;;
17625;SDS011;8931;50.042;19.930;2022-07-26T04:32:40;18.60;;;16.97;;
17625;SDS011;8931;50.042;19.930;2022-07-26T04:33:41;17.50;;;16.10;;
17625;SDS011;8931;50.042;19.930;2022-07-26T04:34:42;24.57;;;16.83;;
17625;SDS011;8931;50.042;19.930;2022-07-26T04:35:43;20.17;;;15.90;;
17625;SDS011;8931;50.042;19.930;2022-07-26T04:36:44;18.43;;;16.50;;
17625;SDS011;8931;50.042;19.930;2022-07-26T04:37:46;17.50;;;16.00;;
17625;SDS011;8931;50.042;19.930;2022-07-26T04:38:47;17.47;;;16.00;;
17625;SDS011;8931;50.042;19.930;2022-07-26T04:39:49;18.17;;;16.47;;
17625;SDS011;8931;50.042;19.930;2022-07-26T04:40:49;19.70;;;17.67;;
17625;SDS011;8931;50.042;19.930;2022-07-26T04:41:51;21.20;;;17.93;;
17625;SDS011;8931;50.042;19.930;2022-07-26T04:42:51;19.30;;;17.30;;
17625;SDS011;8931;50.042;19.930;2022-07-26T04:43:54;19.23;;;17.53;;
17625;SDS011;8931;50.042;19.930;2022-07-26T04:44:55;21.07;;;17.03;;
17625;SDS011;8931;50.042;19.930;2022-07-26T04:45:57;23.33;;;17.50;;
17625;SDS011;8931;50.042;19.930;2022-07-26T04:46:59;19.03;;;17.33;;
17625;SDS011;8931;50.042;19.930;2022-07-26T04:48:01;18.87;;;17.03;;
17625;SDS011;8931;50.042;19.930;2022-07-26T04:49:02;18.53;;;16.70;;
17625;SDS011;8931;50.042;19.930;2022-07-26T04:50:03;20.90;;;17.87;;
17625;SDS011;8931;50.042;19.930;2022-07-26T04:51:05;18.80;;;16.87;;
17625;SDS011;8931;50.042;19.930;2022-07-26T04:52:08;18.90;;;17.17;;
17625;SDS011;8931;50.042;19.930;2022-07-26T04:53:10;19.03;;;17.50;;
17625;SDS011;8931;50.042;19.930;2022-07-26T04:54:11;19.17;;;17.20;;
17625;SDS011;8931;50.042;19.930;2022-07-26T04:55:12;18.23;;;16.70;;
17625;SDS011;8931;50.042;19.930;2022-07-26T04:56:13;22.40;;;17.17;;
17625;SDS011;8931;50.042;19.930;2022-07-26T04:57:14;18.97;;;17.17;;
17625;SDS011;8931;50.042;19.930;2022-07-26T04:58:16;19.53;;;17.67;;
17625;SDS011;8931;50.042;19.930;2022-07-26T04:59:21;19.97;;;17.97;;
17625;SDS011;8931;50.042;19.930;2022-07-26T05:00:23;19.83;;;17.77;;
17625;SDS011;8931;50.042;19.930;2022-07-26T05:01:25;19.57;;;17.67;;
17625;SDS011;8931;50.042;19.930;2022-07-26T05:02:25;19.07;;;17.33;;
17625;SDS011;8931;50.042;19.930;2022-07-26T05:03:27;19.87;;;18.00;;
17625;SDS011;8931;50.042;19.930;2022-07-26T05:04:28;19.30;;;17.33;;
17625;SDS011;8931;50.042;19.930;2022-07-26T05:05:30;19.43;;;17.53;;
17625;SDS011;8931;50.042;19.930;2022-07-26T05:06:34;20.17;;;18.10;;
17625;SDS011;8931;50.042;19.930;2022-07-26T05:07:39;20.23;;;18.33;;
17625;SDS011;8931;50.042;19.930;2022-07-26T05:08:40;19.47;;;17.60;;
17625;SDS011;8931;50.042;19.930;2022-07-26T05:09:42;20.23;;;17.90;;
17625;SDS011;8931;50.042;19.930;2022-07-26T05:10:44;20.67;;;18.07;;
17625;SDS011;8931;50.042;19.930;2022-07-26T05:11:45;19.50;;;17.60;;
17625;SDS011;8931;50.042;19.930;2022-07-26T05:12:47;19.40;;;17.60;;
17625;SDS011;8931;50.042;19.930;2022-07-26T05:13:52;20.97;;;18.50;;
17625;SDS011;8931;50.042;19.930;2022-07-26T05:14:54;22.70;;;17.60;;
17625;SDS011;8931;50.042;19.930;2022-07-26T05:15:56;19.53;;;17.70;;
17625;SDS011;8931;50.042;19.930;2022-07-26T05:16:58;22.13;;;17.77;;
17625;SDS011;8931;50.042;19.930;2022-07-26T05:18:00;18.90;;;17.27;;
17625;SDS011;8931;50.042;19.930;2022-07-26T05:19:02;19.20;;;17.50;;
17625;SDS011;8931;50.042;19.930;2022-07-26T05:20:06;19.43;;;17.40;;
17625;SDS011;8931;50.042;19.930;2022-07-26T05:21:09;19.57;;;17.63;;
17625;SDS011;8931;50.042;19.930;2022-07-26T05:22:10;19.73;;;17.73;;
17625;SDS011;8931;50.042;19.930;2022-07-26T05:23:11;20.53;;;17.90;;
17625;SDS011;8931;50.042;19.930;2022-07-26T05:24:12;18.83;;;17.03;;
17625;SDS011;8931;50.042;19.930;2022-07-26T05:25:13;19.37;;;17.57;;
17625;SDS011;8931;50.042;19.930;2022-07-26T05:26:14;20.17;;;18.40;;
17625;SDS011;8931;50.042;19.930;2022-07-26T05:27:19;19.93;;;18.20;;
17625;SDS011;8931;50.042;19.930;2022-07-26T05:28:19;19.83;;;18.07;;
17625;SDS011;8931;50.042;19.930;2022-07-26T05:29:21;22.00;;;18.33;;
17625;SDS011;8931;50.042;19.930;2022-07-26T05:30:23;20.13;;;18.43;;
17625;SDS011;8931;50.042;19.930;2022-07-26T05:31:25;24.90;;;18.33;;
17625;SDS011;8931;50.042;19.930;2022-07-26T05:32:25;20.23;;;18.43;;
17625;SDS011;8931;50.042;19.930;2022-07-26T05:33:29;20.13;;;18.13;;
17625;SDS011;8931;50.042;19.930;2022-07-26T05:34:31;21.03;;;18.20;;
17625;SDS011;8931;50.042;19.930;2022-07-26T05:35:32;19.73;;;17.83;;
17625;SDS011;8931;50.042;19.930;2022-07-26T05:36:33;20.17;;;18.20;;
17625;SDS011;8931;50.042;19.930;2022-07-26T05:37:34;20.80;;;18.00;;
17625;SDS011;8931;50.042;19.930;2022-07-26T05:38:36;19.87;;;18.03;;
17625;SDS011;8931;50.042;19.930;2022-07-26T05:39:37;19.67;;;17.63;;
17625;SDS011;8931;50.042;19.930;2022-07-26T05:40:39;19.80;;;17.80;;
17625;SDS011;8931;50.042;19.930;2022-07-26T05:41:41;19.40;;;17.60;;
17625;SDS011;8931;50.042;19.930;2022-07-26T05:42:42;18.50;;;16.90;;
17625;SDS011;8931;50.042;19.930;2022-07-26T05:43:43;19.57;;;17.47;;
17625;SDS011;8931;50.042;19.930;2022-07-26T05:44:44;22.67;;;17.73;;
17625;SDS011;8931;50.042;19.930;2022-07-26T05:45:46;18.27;;;16.80;;
17625;SDS011;8931;50.042;19.930;2022-07-26T05:46:48;18.10;;;16.60;;
17625;SDS011;8931;50.042;19.930;2022-07-26T05:47:49;20.30;;;18.00;;
17625;SDS011;8931;50.042;19.930;2022-07-26T05:48:52;19.73;;;17.63;;
17625;SDS011;8931;50.042;19.930;2022-07-26T05:49:52;26.07;;;18.57;;
17625;SDS011;8931;50.042;19.930;2022-07-26T05:50:54;20.70;;;18.73;;
17625;SDS011;8931;50.042;19.930;2022-07-26T05:51:56;21.33;;;19.10;;
17625;SDS011;8931;50.042;19.930;2022-07-26T05:52:56;25.67;;;18.73;;
17625;SDS011;8931;50.042;19.930;2022-07-26T05:53:58;24.47;;;19.33;;
17625;SDS011;8931;50.042;19.930;2022-07-26T05:55:02;27.30;;;19.97;;
17625;SDS011;8931;50.042;19.930;2022-07-26T05:56:04;21.83;;;19.67;;
17625;SDS011;8931;50.042;19.930;2022-07-26T05:57:05;25.67;;;19.87;;
17625;SDS011;8931;50.042;19.930;2022-07-26T05:58:07;24.90;;;19.60;;
17625;SDS011;8931;50.042;19.930;2022-07-26T05:59:07;24.63;;;19.80;;
17625;SDS011;8931;50.042;19.930;2022-07-26T06:00:09;25.23;;;19.50;;
17625;SDS011;8931;50.042;19.930;2022-07-26T06:01:16;22.77;;;19.40;;
17625;SDS011;8931;50.042;19.930;2022-07-26T06:02:22;32.40;;;20.47;;